sensor_id;sensor_type;location;lat;lon;timestamp;temperature;humidity
7341;DHT22;6870;50.944;6.932;2022-10-17T00:01:08;22.00;35.80
7341;DHT22;6870;50.944;6.932;2022-10-17T00:03:37;21.80;35.90
7341;DHT22;6870;50.944;6.932;2022-10-17T00:06:07;22.10;36.40
7341;DHT22;6870;50.944;6.932;2022-10-17T00:08:37;22.20;35.60
7341;DHT22;6870;50.944;6.932;2022-10-17T00:11:11;22.00;36.30
7341;DHT22;6870;50.944;6.932;2022-10-17T00:13:43;22.10;35.50
7341;DHT22;6870;50.944;6.932;2022-10-17T00:16:11;22.10;36.20
7341;DHT22;6870;50.944;6.932;2022-10-17T00:18:39;21.80;35.20
7341;DHT22;6870;50.944;6.932;2022-10-17T00:21:14;21.80;35.70
7341;DHT22;6870;50.944;6.932;2022-10-17T00:23:43;22.20;36.50
7341;DHT22;6870;50.944;6.932;2022-10-17T00:26:11;21.90;35.70
7341;DHT22;6870;50.944;6.932;2022-10-17T00:28:41;21.70;36.10
7341;DHT22;6870;50.944;6.932;2022-10-17T00:31:09;22.10;35.70
7341;DHT22;6870;50.944;6.932;2022-10-17T00:33:37;21.60;36.10
7341;DHT22;6870;50.944;6.932;2022-10-17T00:36:08;21.90;35.70
7341;DHT22;6870;50.944;6.932;2022-10-17T00:38:39;22.10;36.50
7341;DHT22;6870;50.944;6.932;2022-10-17T00:41:09;21.90;36.20
7341;DHT22;6870;50.944;6.932;2022-10-17T00:43:52;22.00;36.40
7341;DHT22;6870;50.944;6.932;2022-10-17T00:46:23;22.00;35.50
7341;DHT22;6870;50.944;6.932;2022-10-17T00:48:53;22.00;36.40
7341;DHT22;6870;50.944;6.932;2022-10-17T00:51:26;21.70;36.10
7341;DHT22;6870;50.944;6.932;2022-10-17T00:53:59;21.70;36.10
7341;DHT22;6870;50.944;6.932;2022-10-17T00:56:29;22.00;36.40
7341;DHT22;6870;50.944;6.932;2022-10-17T00:58:58;21.90;36.30
7341;DHT22;6870;50.944;6.932;2022-10-17T01:01:27;22.10;36.50
7341;DHT22;6870;50.944;6.932;2022-10-17T01:03:55;22.10;36.50
7341;DHT22;6870;50.944;6.932;2022-10-17T01:06:24;22.00;36.10
7341;DHT22;6870;50.944;6.932;2022-10-17T01:08:52;22.10;35.70
7341;DHT22;6870;50.944;6.932;2022-10-17T01:11:29;22.30;36.60
7341;DHT22;6870;50.944;6.932;2022-10-17T01:14:06;22.00;36.40
7341;DHT22;6870;50.944;6.932;2022-10-17T01:16:42;21.80;36.20
7341;DHT22;6870;50.944;6.932;2022-10-17T01:19:33;21.90;36.40
7341;DHT22;6870;50.944;6.932;2022-10-17T01:22:11;21.90;36.40
7341;DHT22;6870;50.944;6.932;2022-10-17T01:24:54;22.10;35.70
7341;DHT22;6870;50.944;6.932;2022-10-17T01:27:59;22.20;36.60
7341;DHT22;6870;50.944;6.932;2022-10-17T01:31:00;22.10;36.50
7341;DHT22;6870;50.944;6.932;2022-10-17T01:33:46;21.90;36.30
7341;DHT22;6870;50.944;6.932;2022-10-17T01:36:29;21.60;36.00
7341;DHT22;6870;50.944;6.932;2022-10-17T01:39:09;21.90;36.40
7341;DHT22;6870;50.944;6.932;2022-10-17T01:41:43;21.90;36.40
7341;DHT22;6870;50.944;6.932;2022-10-17T01:44:17;22.00;36.00
7341;DHT22;6870;50.944;6.932;2022-10-17T01:46:50;22.10;36.60
7341;DHT22;6870;50.944;6.932;2022-10-17T01:49:27;22.00;36.50
7341;DHT22;6870;50.944;6.932;2022-10-17T01:51:59;21.90;36.40
7341;DHT22;6870;50.944;6.932;2022-10-17T01:54:31;22.00;36.40
7341;DHT22;6870;50.944;6.932;2022-10-17T01:57:06;22.10;36.60
7341;DHT22;6870;50.944;6.932;2022-10-17T01:59:40;22.00;36.50
7341;DHT22;6870;50.944;6.932;2022-10-17T02:02:13;21.70;36.20
7341;DHT22;6870;50.944;6.932;2022-10-17T02:04:41;21.90;36.40
7341;DHT22;6870;50.944;6.932;2022-10-17T02:07:11;22.00;36.50
7341;DHT22;6870;50.944;6.932;2022-10-17T02:09:40;21.80;36.30
7341;DHT22;6870;50.944;6.932;2022-10-17T02:15:27;22.00;36.50
7341;DHT22;6870;50.944;6.932;2022-10-17T02:18:15;21.80;36.30
7341;DHT22;6870;50.944;6.932;2022-10-17T02:20:53;21.80;36.30
7341;DHT22;6870;50.944;6.932;2022-10-17T02:23:27;21.90;36.50
7341;DHT22;6870;50.944;6.932;2022-10-17T02:26:06;22.10;36.60
7341;DHT22;6870;50.944;6.932;2022-10-17T02:28:42;21.50;35.30
7341;DHT22;6870;50.944;6.932;2022-10-17T02:31:14;21.80;36.40
7341;DHT22;6870;50.944;6.932;2022-10-17T02:33:48;21.90;36.50
7341;DHT22;6870;50.944;6.932;2022-10-17T02:36:23;21.40;36.00
7341;DHT22;6870;50.944;6.932;2022-10-17T02:38:56;21.80;35.60
7341;DHT22;6870;50.944;6.932;2022-10-17T02:41:25;21.50;36.10
7341;DHT22;6870;50.944;6.932;2022-10-17T02:43:55;22.00;36.30
7341;DHT22;6870;50.944;6.932;2022-10-17T02:46:28;21.90;36.50
7341;DHT22;6870;50.944;6.932;2022-10-17T02:49:01;22.10;36.70
7341;DHT22;6870;50.944;6.932;2022-10-17T02:51:40;21.80;36.40
7341;DHT22;6870;50.944;6.932;2022-10-17T02:54:13;21.70;36.40
7341;DHT22;6870;50.944;6.932;2022-10-17T02:56:50;22.00;36.80
7341;DHT22;6870;50.944;6.932;2022-10-17T02:59:21;22.00;36.60
7341;DHT22;6870;50.944;6.932;2022-10-17T03:01:52;21.60;36.20
7341;DHT22;6870;50.944;6.932;2022-10-17T03:04:21;21.50;35.90
7341;DHT22;6870;50.944;6.932;2022-10-17T03:06:50;22.00;36.60
7341;DHT22;6870;50.944;6.932;2022-10-17T03:09:18;21.60;36.20
7341;DHT22;6870;50.944;6.932;2022-10-17T03:11:46;21.90;36.30
7341;DHT22;6870;50.944;6.932;2022-10-17T03:14:14;21.80;36.10
7341;DHT22;6870;50.944;6.932;2022-10-17T03:16:42;21.90;36.50
7341;DHT22;6870;50.944;6.932;2022-10-17T03:19:11;21.60;35.70
7341;DHT22;6870;50.944;6.932;2022-10-17T03:21:40;21.50;35.60
7341;DHT22;6870;50.944;6.932;2022-10-17T03:24:08;21.90;35.80
7341;DHT22;6870;50.944;6.932;2022-10-17T03:26:36;22.00;36.70
7341;DHT22;6870;50.944;6.932;2022-10-17T03:29:05;21.50;35.90
7341;DHT22;6870;50.944;6.932;2022-10-17T03:31:33;21.90;35.80
7341;DHT22;6870;50.944;6.932;2022-10-17T03:34:02;21.90;36.50
7341;DHT22;6870;50.944;6.932;2022-10-17T03:36:30;22.00;36.30
7341;DHT22;6870;50.944;6.932;2022-10-17T03:38:59;21.90;36.40
7341;DHT22;6870;50.944;6.932;2022-10-17T03:41:27;21.60;35.90
7341;DHT22;6870;50.944;6.932;2022-10-17T03:43:56;21.80;36.50
7341;DHT22;6870;50.944;6.932;2022-10-17T03:46:24;21.70;36.00
7341;DHT22;6870;50.944;6.932;2022-10-17T03:48:52;21.50;36.30
7341;DHT22;6870;50.944;6.932;2022-10-17T03:51:21;21.40;36.20
7341;DHT22;6870;50.944;6.932;2022-10-17T03:53:49;21.80;36.90
7341;DHT22;6870;50.944;6.932;2022-10-17T03:56:19;21.80;36.70
7341;DHT22;6870;50.944;6.932;2022-10-17T03:58:49;21.80;35.90
7341;DHT22;6870;50.944;6.932;2022-10-17T04:01:18;21.70;36.60
7341;DHT22;6870;50.944;6.932;2022-10-17T04:03:48;21.60;35.80
7341;DHT22;6870;50.944;6.932;2022-10-17T04:06:17;21.90;36.80
7341;DHT22;6870;50.944;6.932;2022-10-17T04:08:46;21.80;36.70
7341;DHT22;6870;50.944;6.932;2022-10-17T04:11:16;21.80;36.00
7341;DHT22;6870;50.944;6.932;2022-10-17T04:13:47;21.50;36.60
7341;DHT22;6870;50.944;6.932;2022-10-17T04:16:19;21.50;36.60
7341;DHT22;6870;50.944;6.932;2022-10-17T04:18:51;21.80;36.70
7341;DHT22;6870;50.944;6.932;2022-10-17T04:21:21;21.50;36.10
7341;DHT22;6870;50.944;6.932;2022-10-17T04:23:52;21.80;36.70
7341;DHT22;6870;50.944;6.932;2022-10-17T04:26:21;21.70;36.70
7341;DHT22;6870;50.944;6.932;2022-10-17T04:28:51;21.60;36.70
7341;DHT22;6870;50.944;6.932;2022-10-17T04:31:20;21.90;36.90
7341;DHT22;6870;50.944;6.932;2022-10-17T04:33:49;22.00;36.80
7341;DHT22;6870;50.944;6.932;2022-10-17T04:36:19;21.80;36.60
7341;DHT22;6870;50.944;6.932;2022-10-17T04:38:48;22.00;36.20
7341;DHT22;6870;50.944;6.932;2022-10-17T04:41:17;21.70;36.40
7341;DHT22;6870;50.944;6.932;2022-10-17T04:43:46;21.60;36.50
7341;DHT22;6870;50.944;6.932;2022-10-17T04:46:18;21.90;36.00
7341;DHT22;6870;50.944;6.932;2022-10-17T04:48:46;21.60;36.20
7341;DHT22;6870;50.944;6.932;2022-10-17T04:51:16;21.60;36.20
7341;DHT22;6870;50.944;6.932;2022-10-17T04:53:50;21.50;36.70
7341;DHT22;6870;50.944;6.932;2022-10-17T04:56:20;21.50;36.00
7341;DHT22;6870;50.944;6.932;2022-10-17T04:58:49;21.60;36.90
7341;DHT22;6870;50.944;6.932;2022-10-17T05:01:20;21.40;35.90
7341;DHT22;6870;50.944;6.932;2022-10-17T05:03:50;21.80;37.00
7341;DHT22;6870;50.944;6.932;2022-10-17T05:06:20;22.00;37.30
7341;DHT22;6870;50.944;6.932;2022-10-17T05:08:49;21.80;36.80
7341;DHT22;6870;50.944;6.932;2022-10-17T05:11:20;21.80;36.30
7341;DHT22;6870;50.944;6.932;2022-10-17T05:13:51;21.80;36.00
7341;DHT22;6870;50.944;6.932;2022-10-17T05:16:22;21.80;36.90
7341;DHT22;6870;50.944;6.932;2022-10-17T05:18:52;21.70;36.20
7341;DHT22;6870;50.944;6.932;2022-10-17T05:21:22;21.80;37.00
7341;DHT22;6870;50.944;6.932;2022-10-17T05:23:52;21.80;37.00
7341;DHT22;6870;50.944;6.932;2022-10-17T05:26:21;21.80;37.10
7341;DHT22;6870;50.944;6.932;2022-10-17T05:28:50;21.80;37.00
7341;DHT22;6870;50.944;6.932;2022-10-17T05:31:21;21.50;36.90
7341;DHT22;6870;50.944;6.932;2022-10-17T05:33:50;21.50;36.30
7341;DHT22;6870;50.944;6.932;2022-10-17T05:36:18;21.70;36.50
7341;DHT22;6870;50.944;6.932;2022-10-17T05:38:48;21.70;36.50
7341;DHT22;6870;50.944;6.932;2022-10-17T05:41:17;21.80;36.70
7341;DHT22;6870;50.944;6.932;2022-10-17T05:43:46;21.70;37.10
7341;DHT22;6870;50.944;6.932;2022-10-17T05:46:16;21.50;36.40
7341;DHT22;6870;50.944;6.932;2022-10-17T05:48:45;21.30;36.30
7341;DHT22;6870;50.944;6.932;2022-10-17T05:51:14;21.60;37.10
7341;DHT22;6870;50.944;6.932;2022-10-17T05:53:42;21.80;36.50
7341;DHT22;6870;50.944;6.932;2022-10-17T05:56:11;21.70;36.80
7341;DHT22;6870;50.944;6.932;2022-10-17T05:58:41;21.80;37.10
7341;DHT22;6870;50.944;6.932;2022-10-17T06:01:16;21.70;36.90
7341;DHT22;6870;50.944;6.932;2022-10-17T06:03:46;21.80;37.00
7341;DHT22;6870;50.944;6.932;2022-10-17T06:06:15;21.90;36.50
7341;DHT22;6870;50.944;6.932;2022-10-17T06:08:44;21.40;36.80
7341;DHT22;6870;50.944;6.932;2022-10-17T06:11:12;21.90;36.30
7341;DHT22;6870;50.944;6.932;2022-10-17T06:13:40;21.90;36.70
7341;DHT22;6870;50.944;6.932;2022-10-17T06:16:08;21.60;36.20
7341;DHT22;6870;50.944;6.932;2022-10-17T06:18:36;21.50;36.80
7341;DHT22;6870;50.944;6.932;2022-10-17T06:21:08;21.80;36.80
7341;DHT22;6870;50.944;6.932;2022-10-17T06:23:38;21.80;37.20
7341;DHT22;6870;50.944;6.932;2022-10-17T06:26:06;21.80;36.90
7341;DHT22;6870;50.944;6.932;2022-10-17T06:28:35;21.70;36.70
7341;DHT22;6870;50.944;6.932;2022-10-17T06:31:05;21.40;36.70
7341;DHT22;6870;50.944;6.932;2022-10-17T06:33:33;21.70;36.90
7341;DHT22;6870;50.944;6.932;2022-10-17T06:36:02;22.00;36.90
7341;DHT22;6870;50.944;6.932;2022-10-17T06:38:32;21.90;37.10
7341;DHT22;6870;50.944;6.932;2022-10-17T06:41:03;21.80;37.00
7341;DHT22;6870;50.944;6.932;2022-10-17T06:43:34;21.90;37.10
7341;DHT22;6870;50.944;6.932;2022-10-17T06:46:03;21.80;36.90
7341;DHT22;6870;50.944;6.932;2022-10-17T06:48:31;21.80;36.70
7341;DHT22;6870;50.944;6.932;2022-10-17T06:51:00;22.10;37.00
7341;DHT22;6870;50.944;6.932;2022-10-17T06:53:33;21.80;36.40
7341;DHT22;6870;50.944;6.932;2022-10-17T06:56:03;22.00;36.60
7341;DHT22;6870;50.944;6.932;2022-10-17T06:58:34;21.90;35.70
7341;DHT22;6870;50.944;6.932;2022-10-17T07:01:06;21.90;36.30
7341;DHT22;6870;50.944;6.932;2022-10-17T07:03:40;21.90;36.10
7341;DHT22;6870;50.944;6.932;2022-10-17T07:06:09;22.00;36.20
7341;DHT22;6870;50.944;6.932;2022-10-17T07:08:41;21.60;35.60
7341;DHT22;6870;50.944;6.932;2022-10-17T07:11:11;22.00;35.90
7341;DHT22;6870;50.944;6.932;2022-10-17T07:13:41;22.00;35.60
7341;DHT22;6870;50.944;6.932;2022-10-17T07:16:10;22.10;35.80
7341;DHT22;6870;50.944;6.932;2022-10-17T07:18:39;22.20;35.50
7341;DHT22;6870;50.944;6.932;2022-10-17T07:21:08;22.10;35.50
7341;DHT22;6870;50.944;6.932;2022-10-17T07:23:36;22.00;35.60
7341;DHT22;6870;50.944;6.932;2022-10-17T07:26:08;22.10;35.60
7341;DHT22;6870;50.944;6.932;2022-10-17T07:28:41;22.10;35.50
7341;DHT22;6870;50.944;6.932;2022-10-17T07:31:13;22.20;34.50
7341;DHT22;6870;50.944;6.932;2022-10-17T07:33:44;22.30;35.50
7341;DHT22;6870;50.944;6.932;2022-10-17T07:36:17;22.10;35.00
7341;DHT22;6870;50.944;6.932;2022-10-17T07:38:45;22.10;33.90
7341;DHT22;6870;50.944;6.932;2022-10-17T07:41:15;22.40;34.50
7341;DHT22;6870;50.944;6.932;2022-10-17T07:43:48;22.20;34.90
7341;DHT22;6870;50.944;6.932;2022-10-17T07:46:16;22.20;35.00
7341;DHT22;6870;50.944;6.932;2022-10-17T07:48:44;22.30;35.00
7341;DHT22;6870;50.944;6.932;2022-10-17T07:51:12;22.10;33.90
7341;DHT22;6870;50.944;6.932;2022-10-17T07:53:40;22.20;34.90
7341;DHT22;6870;50.944;6.932;2022-10-17T07:56:16;22.10;34.20
7341;DHT22;6870;50.944;6.932;2022-10-17T07:58:44;22.50;34.50
7341;DHT22;6870;50.944;6.932;2022-10-17T08:01:14;22.20;34.50
7341;DHT22;6870;50.944;6.932;2022-10-17T08:03:44;22.20;34.80
7341;DHT22;6870;50.944;6.932;2022-10-17T08:06:12;22.10;34.50
7341;DHT22;6870;50.944;6.932;2022-10-17T08:08:41;22.30;34.00
7341;DHT22;6870;50.944;6.932;2022-10-17T08:11:11;22.10;34.40
7341;DHT22;6870;50.944;6.932;2022-10-17T08:13:41;22.30;34.00
7341;DHT22;6870;50.944;6.932;2022-10-17T08:16:11;22.20;34.40
7341;DHT22;6870;50.944;6.932;2022-10-17T08:18:41;22.20;34.20
7341;DHT22;6870;50.944;6.932;2022-10-17T08:21:10;22.60;34.40
7341;DHT22;6870;50.944;6.932;2022-10-17T08:23:39;22.50;34.30
7341;DHT22;6870;50.944;6.932;2022-10-17T08:26:08;22.50;34.30
7341;DHT22;6870;50.944;6.932;2022-10-17T08:28:40;22.40;34.20
7341;DHT22;6870;50.944;6.932;2022-10-17T08:31:11;22.20;34.70
7341;DHT22;6870;50.944;6.932;2022-10-17T08:33:40;22.50;34.20
7341;DHT22;6870;50.944;6.932;2022-10-17T08:36:09;22.40;34.10
7341;DHT22;6870;50.944;6.932;2022-10-17T08:38:39;22.30;34.10
7341;DHT22;6870;50.944;6.932;2022-10-17T08:41:14;22.50;34.20
7341;DHT22;6870;50.944;6.932;2022-10-17T08:44:10;22.40;34.00
7341;DHT22;6870;50.944;6.932;2022-10-17T08:46:46;22.40;34.00
7341;DHT22;6870;50.944;6.932;2022-10-17T08:49:32;22.30;34.00
7341;DHT22;6870;50.944;6.932;2022-10-17T08:52:13;22.50;34.10
7341;DHT22;6870;50.944;6.932;2022-10-17T08:54:45;22.80;34.40
7341;DHT22;6870;50.944;6.932;2022-10-17T08:57:15;22.10;33.70
7341;DHT22;6870;50.944;6.932;2022-10-17T08:59:49;22.40;34.00
7341;DHT22;6870;50.944;6.932;2022-10-17T09:02:31;22.60;34.20
7341;DHT22;6870;50.944;6.932;2022-10-17T09:05:22;22.50;34.10
7341;DHT22;6870;50.944;6.932;2022-10-17T09:08:01;22.40;34.00
7341;DHT22;6870;50.944;6.932;2022-10-17T09:10:43;22.40;33.80
7341;DHT22;6870;50.944;6.932;2022-10-17T09:13:30;22.60;34.30
7341;DHT22;6870;50.944;6.932;2022-10-17T09:16:17;22.40;33.90
7341;DHT22;6870;50.944;6.932;2022-10-17T09:18:58;22.50;33.90
7341;DHT22;6870;50.944;6.932;2022-10-17T09:21:35;22.40;34.00
7341;DHT22;6870;50.944;6.932;2022-10-17T09:24:14;22.50;34.20
7341;DHT22;6870;50.944;6.932;2022-10-17T09:26:45;22.40;34.10
7341;DHT22;6870;50.944;6.932;2022-10-17T09:29:21;22.50;34.00
7341;DHT22;6870;50.944;6.932;2022-10-17T09:31:59;22.50;34.00
7341;DHT22;6870;50.944;6.932;2022-10-17T09:34:31;22.80;34.20
7341;DHT22;6870;50.944;6.932;2022-10-17T09:37:00;22.90;34.20
7341;DHT22;6870;50.944;6.932;2022-10-17T09:39:29;22.70;34.00
7341;DHT22;6870;50.944;6.932;2022-10-17T09:41:59;22.50;34.20
7341;DHT22;6870;50.944;6.932;2022-10-17T09:44:30;22.50;33.80
7341;DHT22;6870;50.944;6.932;2022-10-17T09:47:11;22.60;34.00
7341;DHT22;6870;50.944;6.932;2022-10-17T09:49:46;22.50;34.20
7341;DHT22;6870;50.944;6.932;2022-10-17T09:52:17;22.50;34.00
7341;DHT22;6870;50.944;6.932;2022-10-17T09:54:48;22.40;33.90
7341;DHT22;6870;50.944;6.932;2022-10-17T09:57:19;22.90;34.40
7341;DHT22;6870;50.944;6.932;2022-10-17T09:59:56;22.40;33.90
7341;DHT22;6870;50.944;6.932;2022-10-17T10:02:28;22.50;34.90
7341;DHT22;6870;50.944;6.932;2022-10-17T10:05:01;22.30;33.70
7341;DHT22;6870;50.944;6.932;2022-10-17T10:07:35;22.60;34.00
7341;DHT22;6870;50.944;6.932;2022-10-17T10:10:25;22.40;33.70
7341;DHT22;6870;50.944;6.932;2022-10-17T10:13:05;22.40;33.60
7341;DHT22;6870;50.944;6.932;2022-10-17T10:15:44;22.80;33.80
7341;DHT22;6870;50.944;6.932;2022-10-17T10:18:30;22.50;33.60
7341;DHT22;6870;50.944;6.932;2022-10-17T10:21:06;22.90;33.60
7341;DHT22;6870;50.944;6.932;2022-10-17T10:23:36;23.00;33.40
7341;DHT22;6870;50.944;6.932;2022-10-17T10:26:23;22.80;33.20
7341;DHT22;6870;50.944;6.932;2022-10-17T10:29:04;23.10;33.40
7341;DHT22;6870;50.944;6.932;2022-10-17T10:31:37;22.60;33.20
7341;DHT22;6870;50.944;6.932;2022-10-17T10:34:18;23.00;33.60
7341;DHT22;6870;50.944;6.932;2022-10-17T10:36:57;22.50;33.20
7341;DHT22;6870;50.944;6.932;2022-10-17T10:39:41;22.60;33.20
7341;DHT22;6870;50.944;6.932;2022-10-17T10:42:21;23.00;34.50
7341;DHT22;6870;50.944;6.932;2022-10-17T10:44:55;22.70;33.30
7341;DHT22;6870;50.944;6.932;2022-10-17T10:47:27;23.00;33.90
7341;DHT22;6870;50.944;6.932;2022-10-17T10:50:17;22.50;33.30
7341;DHT22;6870;50.944;6.932;2022-10-17T10:53:03;22.90;33.90
7341;DHT22;6870;50.944;6.932;2022-10-17T10:55:41;22.60;33.60
7341;DHT22;6870;50.944;6.932;2022-10-17T10:58:22;22.40;33.50
7341;DHT22;6870;50.944;6.932;2022-10-17T11:00:55;22.60;33.70
7341;DHT22;6870;50.944;6.932;2022-10-17T11:03:28;22.60;33.70
7341;DHT22;6870;50.944;6.932;2022-10-17T11:06:04;23.00;34.10
7341;DHT22;6870;50.944;6.932;2022-10-17T11:08:41;22.90;34.10
7341;DHT22;6870;50.944;6.932;2022-10-17T11:11:15;22.80;34.00
7341;DHT22;6870;50.944;6.932;2022-10-17T11:13:58;22.40;33.60
7341;DHT22;6870;50.944;6.932;2022-10-17T11:16:33;22.50;34.20
7341;DHT22;6870;50.944;6.932;2022-10-17T11:19:20;22.50;33.80
7341;DHT22;6870;50.944;6.932;2022-10-17T11:22:02;22.70;34.10
7341;DHT22;6870;50.944;6.932;2022-10-17T11:24:39;22.60;33.90
7341;DHT22;6870;50.944;6.932;2022-10-17T11:27:13;22.50;33.80
7341;DHT22;6870;50.944;6.932;2022-10-17T11:29:41;22.60;34.10
7341;DHT22;6870;50.944;6.932;2022-10-17T11:32:15;22.30;33.80
7341;DHT22;6870;50.944;6.932;2022-10-17T11:34:48;22.60;34.10
7341;DHT22;6870;50.944;6.932;2022-10-17T11:37:24;22.50;34.20
7341;DHT22;6870;50.944;6.932;2022-10-17T11:39:56;22.60;34.20
7341;DHT22;6870;50.944;6.932;2022-10-17T11:42:30;22.50;34.10
7341;DHT22;6870;50.944;6.932;2022-10-17T11:45:03;22.40;33.90
7341;DHT22;6870;50.944;6.932;2022-10-17T11:47:37;22.50;34.00
7341;DHT22;6870;50.944;6.932;2022-10-17T11:50:19;22.40;33.90
7341;DHT22;6870;50.944;6.932;2022-10-17T11:53:13;22.90;34.40
7341;DHT22;6870;50.944;6.932;2022-10-17T11:55:43;22.40;33.90
7341;DHT22;6870;50.944;6.932;2022-10-17T11:58:25;22.60;34.20
7341;DHT22;6870;50.944;6.932;2022-10-17T12:01:03;22.90;34.50
7341;DHT22;6870;50.944;6.932;2022-10-17T12:04:03;22.30;33.90
7341;DHT22;6870;50.944;6.932;2022-10-17T12:06:50;22.80;34.40
7341;DHT22;6870;50.944;6.932;2022-10-17T12:09:31;22.40;34.00
7341;DHT22;6870;50.944;6.932;2022-10-17T12:12:03;22.30;34.00
7341;DHT22;6870;50.944;6.932;2022-10-17T12:14:42;22.20;33.90
7341;DHT22;6870;50.944;6.932;2022-10-17T12:17:31;22.20;34.00
7341;DHT22;6870;50.944;6.932;2022-10-17T12:20:26;22.30;34.10
7341;DHT22;6870;50.944;6.932;2022-10-17T12:23:02;22.40;35.00
7341;DHT22;6870;50.944;6.932;2022-10-17T12:25:51;22.40;34.40
7341;DHT22;6870;50.944;6.932;2022-10-17T12:28:28;22.60;34.50
7341;DHT22;6870;50.944;6.932;2022-10-17T12:30:59;22.40;34.30
7341;DHT22;6870;50.944;6.932;2022-10-17T12:33:34;22.30;34.20
7341;DHT22;6870;50.944;6.932;2022-10-17T12:42:32;22.30;34.20
7341;DHT22;6870;50.944;6.932;2022-10-17T12:45:44;22.50;34.40
7341;DHT22;6870;50.944;6.932;2022-10-17T12:52:17;22.30;34.20
7341;DHT22;6870;50.944;6.932;2022-10-17T12:54:54;22.60;34.60
7341;DHT22;6870;50.944;6.932;2022-10-17T12:57:43;22.20;34.20
7341;DHT22;6870;50.944;6.932;2022-10-17T13:00:21;22.30;34.30
7341;DHT22;6870;50.944;6.932;2022-10-17T13:02:53;22.30;34.40
7341;DHT22;6870;50.944;6.932;2022-10-17T13:05:26;22.40;34.30
7341;DHT22;6870;50.944;6.932;2022-10-17T13:07:59;22.30;34.30
7341;DHT22;6870;50.944;6.932;2022-10-17T13:10:32;22.40;34.50
7341;DHT22;6870;50.944;6.932;2022-10-17T13:13:12;22.30;34.30
7341;DHT22;6870;50.944;6.932;2022-10-17T13:15:45;22.40;34.40
7341;DHT22;6870;50.944;6.932;2022-10-17T13:18:19;22.50;34.50
7341;DHT22;6870;50.944;6.932;2022-10-17T13:20:59;22.40;34.50
7341;DHT22;6870;50.944;6.932;2022-10-17T13:23:31;22.20;34.20
7341;DHT22;6870;50.944;6.932;2022-10-17T13:26:06;22.40;34.50
7341;DHT22;6870;50.944;6.932;2022-10-17T13:28:41;22.30;34.40
7341;DHT22;6870;50.944;6.932;2022-10-17T13:31:29;22.30;34.10
7341;DHT22;6870;50.944;6.932;2022-10-17T13:34:00;22.30;34.40
7341;DHT22;6870;50.944;6.932;2022-10-17T13:36:30;22.50;34.60
7341;DHT22;6870;50.944;6.932;2022-10-17T13:39:05;22.10;34.30
7341;DHT22;6870;50.944;6.932;2022-10-17T13:41:39;22.30;34.40
7341;DHT22;6870;50.944;6.932;2022-10-17T13:44:13;22.40;34.50
7341;DHT22;6870;50.944;6.932;2022-10-17T13:46:43;22.30;34.50
7341;DHT22;6870;50.944;6.932;2022-10-17T13:49:20;22.40;34.50
7341;DHT22;6870;50.944;6.932;2022-10-17T13:51:53;22.30;34.40
7341;DHT22;6870;50.944;6.932;2022-10-17T13:54:34;22.40;34.50
7341;DHT22;6870;50.944;6.932;2022-10-17T13:57:04;22.20;34.30
7341;DHT22;6870;50.944;6.932;2022-10-17T13:59:39;22.30;34.40
7341;DHT22;6870;50.944;6.932;2022-10-17T14:02:13;22.30;34.30
7341;DHT22;6870;50.944;6.932;2022-10-17T14:04:42;22.20;34.20
7341;DHT22;6870;50.944;6.932;2022-10-17T14:07:34;22.30;34.30
7341;DHT22;6870;50.944;6.932;2022-10-17T14:10:25;22.50;34.40
7341;DHT22;6870;50.944;6.932;2022-10-17T14:12:57;22.50;34.40
7341;DHT22;6870;50.944;6.932;2022-10-17T14:15:30;22.80;34.60
7341;DHT22;6870;50.944;6.932;2022-10-17T14:18:00;22.20;34.00
7341;DHT22;6870;50.944;6.932;2022-10-17T14:20:34;22.30;34.10
7341;DHT22;6870;50.944;6.932;2022-10-17T14:23:32;22.40;34.20
7341;DHT22;6870;50.944;6.932;2022-10-17T14:26:13;22.40;34.20
7341;DHT22;6870;50.944;6.932;2022-10-17T14:28:45;22.40;34.30
7341;DHT22;6870;50.944;6.932;2022-10-17T14:31:27;22.50;34.40
7341;DHT22;6870;50.944;6.932;2022-10-17T14:33:57;22.40;34.20
7341;DHT22;6870;50.944;6.932;2022-10-17T14:36:35;22.40;34.20
7341;DHT22;6870;50.944;6.932;2022-10-17T14:39:07;22.20;34.00
7341;DHT22;6870;50.944;6.932;2022-10-17T14:41:46;22.80;34.70
7341;DHT22;6870;50.944;6.932;2022-10-17T14:44:19;22.20;34.10
7341;DHT22;6870;50.944;6.932;2022-10-17T14:46:54;22.70;34.70
7341;DHT22;6870;50.944;6.932;2022-10-17T14:49:34;22.50;34.40
7341;DHT22;6870;50.944;6.932;2022-10-17T14:52:24;22.80;34.70
7341;DHT22;6870;50.944;6.932;2022-10-17T14:55:11;22.40;34.40
7341;DHT22;6870;50.944;6.932;2022-10-17T14:57:46;22.30;34.30
7341;DHT22;6870;50.944;6.932;2022-10-17T15:00:15;22.70;34.70
7341;DHT22;6870;50.944;6.932;2022-10-17T15:02:46;22.40;34.40
7341;DHT22;6870;50.944;6.932;2022-10-17T15:05:15;22.30;34.30
7341;DHT22;6870;50.944;6.932;2022-10-17T15:07:43;22.40;34.50
7341;DHT22;6870;50.944;6.932;2022-10-17T15:10:26;22.20;34.30
7341;DHT22;6870;50.944;6.932;2022-10-17T15:12:58;22.40;34.50
7341;DHT22;6870;50.944;6.932;2022-10-17T15:15:48;22.50;34.60
7341;DHT22;6870;50.944;6.932;2022-10-17T15:18:18;22.30;34.40
7341;DHT22;6870;50.944;6.932;2022-10-17T15:20:46;22.30;34.40
7341;DHT22;6870;50.944;6.932;2022-10-17T15:23:30;22.40;34.50
7341;DHT22;6870;50.944;6.932;2022-10-17T15:25:58;22.40;34.50
7341;DHT22;6870;50.944;6.932;2022-10-17T15:28:26;22.40;34.30
7341;DHT22;6870;50.944;6.932;2022-10-17T15:30:54;22.20;34.00
7341;DHT22;6870;50.944;6.932;2022-10-17T15:33:24;22.40;34.50
7341;DHT22;6870;50.944;6.932;2022-10-17T15:35:51;22.50;34.60
7341;DHT22;6870;50.944;6.932;2022-10-17T15:38:20;22.30;34.40
7341;DHT22;6870;50.944;6.932;2022-10-17T15:40:47;22.30;34.40
7341;DHT22;6870;50.944;6.932;2022-10-17T15:43:18;22.40;34.50
7341;DHT22;6870;50.944;6.932;2022-10-17T15:45:46;22.40;34.50
7341;DHT22;6870;50.944;6.932;2022-10-17T15:48:18;22.30;34.40
7341;DHT22;6870;50.944;6.932;2022-10-17T15:50:48;22.40;34.50
7341;DHT22;6870;50.944;6.932;2022-10-17T15:53:16;22.40;34.60
7341;DHT22;6870;50.944;6.932;2022-10-17T15:55:44;22.50;34.70
7341;DHT22;6870;50.944;6.932;2022-10-17T15:58:16;22.30;34.50
7341;DHT22;6870;50.944;6.932;2022-10-17T16:00:45;22.20;34.50
7341;DHT22;6870;50.944;6.932;2022-10-17T16:03:13;22.60;34.80
7341;DHT22;6870;50.944;6.932;2022-10-17T16:05:41;22.50;34.20
7341;DHT22;6870;50.944;6.932;2022-10-17T16:08:10;22.30;34.20
7341;DHT22;6870;50.944;6.932;2022-10-17T16:10:39;22.10;34.40
7341;DHT22;6870;50.944;6.932;2022-10-17T16:13:12;22.20;34.50
7341;DHT22;6870;50.944;6.932;2022-10-17T16:15:43;22.20;34.50
7341;DHT22;6870;50.944;6.932;2022-10-17T16:18:11;22.20;34.60
7341;DHT22;6870;50.944;6.932;2022-10-17T16:20:39;22.20;34.60
7341;DHT22;6870;50.944;6.932;2022-10-17T16:23:08;22.30;34.60
7341;DHT22;6870;50.944;6.932;2022-10-17T16:25:39;22.30;34.60
7341;DHT22;6870;50.944;6.932;2022-10-17T16:28:07;22.60;35.10
7341;DHT22;6870;50.944;6.932;2022-10-17T16:30:40;22.30;34.80
7341;DHT22;6870;50.944;6.932;2022-10-17T16:33:10;22.10;34.60
7341;DHT22;6870;50.944;6.932;2022-10-17T16:35:39;22.20;34.60
7341;DHT22;6870;50.944;6.932;2022-10-17T16:38:07;22.30;34.70
7341;DHT22;6870;50.944;6.932;2022-10-17T16:40:37;22.30;34.70
7341;DHT22;6870;50.944;6.932;2022-10-17T16:43:05;22.30;34.60
7341;DHT22;6870;50.944;6.932;2022-10-17T16:45:35;22.70;35.10
7341;DHT22;6870;50.944;6.932;2022-10-17T16:48:03;22.40;34.80
7341;DHT22;6870;50.944;6.932;2022-10-17T16:50:36;22.20;34.60
7341;DHT22;6870;50.944;6.932;2022-10-17T16:53:05;22.30;34.70
7341;DHT22;6870;50.944;6.932;2022-10-17T16:55:33;22.30;34.70